Time;durP1;ratioP1;P1;durP2;ratioP2;P2;SDS_P1;SDS_P2;PMS_P1;PMS_P2;Temp;Humidity;BMP_temperature;BMP_pressure;BME280_temperature;BME280_humidity;BME280_pressure;Samples;Min_cycle;Max_cycle;Signal;HPM_P1;HPM_P2
2023/01/13 00:01:34;;;;;;;6.30;1.45;;;;;;;;;;5094497;28;20139;-73
2023/01/13 00:04:00;;;;;;;9.88;1.75;;;;;;;;;;5094874;28;20549;-72
2023/01/13 00:06:25;;;;;;;6.10;1.35;;;;;;;;;;5093524;28;20019;-72
2023/01/13 00:08:52;;;;;;;8.98;2.10;;;;;;;;;;5093580;28;20051;-71
2023/01/13 00:11:18;;;;;;;10.20;1.83;;;;;;;;;;5093299;28;20377;-71
2023/01/13 00:13:44;;;;;;;13.57;1.77;;;;;;;;;;5094757;28;20425;-71
2023/01/13 00:16:11;;;;;;;7.82;1.77;;;;;;;;;;5095158;28;20111;-72
2023/01/13 00:18:37;;;;;;;9.07;1.80;;;;;;;;;;5094671;28;20099;-72
2023/01/13 00:21:11;;;;;;;12.38;1.90;;;;;;;;;;5093047;28;20134;-71
2023/01/13 00:23:38;;;;;;;10.85;2.35;;;;;;;;;;5094544;28;20028;-71
2023/01/13 00:26:05;;;;;;;8.30;1.60;;;;;;;;;;5094555;28;20028;-72
2023/01/13 00:28:31;;;;;;;12.18;1.60;;;;;;;;;;5093304;28;20024;-71
2023/01/13 00:31:13;;;;;;;7.15;2.25;;;;;;;;;;5093279;28;20020;-71
2023/01/13 00:33:41;;;;;;;5.53;1.95;;;;;;;;;;5094630;28;20038;-72
2023/01/13 00:36:11;;;;;;;8.35;1.90;;;;;;;;;;5094521;28;20073;-73
2023/01/13 00:38:37;;;;;;;9.13;2.20;;;;;;;;;;5093335;28;20020;-71
2023/01/13 00:41:10;;;;;;;6.20;1.92;;;;;;;;;;5094229;28;20028;-71
2023/01/13 00:43:36;;;;;;;6.35;1.73;;;;;;;;;;5094778;28;20376;-71
2023/01/13 00:46:02;;;;;;;9.57;1.55;;;;;;;;;;5093602;28;20042;-71
2023/01/13 00:48:28;;;;;;;10.80;1.88;;;;;;;;;;5094295;28;20020;-71
2023/01/13 00:51:01;;;;;;;14.18;2.35;;;;;;;;;;5094303;28;20013;-71
2023/01/13 00:53:27;;;;;;;6.55;1.98;;;;;;;;;;5094173;28;20045;-71
2023/01/13 00:56:19;;;;;;;9.88;1.85;;;;;;;;;;5094146;28;20103;-72
2023/01/13 00:58:45;;;;;;;9.77;1.85;;;;;;;;;;5091480;28;20063;-71
2023/01/13 01:01:15;;;;;;;3.67;1.13;;;;;;;;;;5092571;28;20094;-71
2023/01/13 01:03:41;;;;;;;5.50;1.63;;;;;;;;;;5094347;28;20524;-71
2023/01/13 01:06:09;;;;;;;8.00;2.03;;;;;;;;;;5097594;28;20062;-74
2023/01/13 01:08:35;;;;;;;8.70;1.92;;;;;;;;;;5097101;28;20488;-71
2023/01/13 01:11:04;;;;;;;4.85;1.42;;;;;;;;;;5096358;28;20089;-78
2023/01/13 01:13:31;;;;;;;8.35;1.42;;;;;;;;;;5092864;28;20392;-71
2023/01/13 01:15:57;;;;;;;4.22;1.73;;;;;;;;;;5092797;28;20020;-71
2023/01/13 01:18:23;;;;;;;5.00;1.40;;;;;;;;;;5093088;28;20031;-73
2023/01/13 01:20:48;;;;;;;5.93;1.08;;;;;;;;;;5095120;28;20039;-72
2023/01/13 01:23:15;;;;;;;8.38;1.60;;;;;;;;;;5096998;28;20016;-72
2023/01/13 01:25:41;;;;;;;9.27;1.02;;;;;;;;;;5095144;28;20461;-73
2023/01/13 01:28:06;;;;;;;10.05;1.80;;;;;;;;;;5092928;28;20028;-73
2023/01/13 01:30:32;;;;;;;4.63;1.63;;;;;;;;;;5092766;28;20111;-72
2023/01/13 01:32:57;;;;;;;5.43;1.38;;;;;;;;;;5092744;28;20169;-73
2023/01/13 01:35:23;;;;;;;10.93;1.73;;;;;;;;;;5094558;28;20537;-74
2023/01/13 01:37:48;;;;;;;4.38;1.60;;;;;;;;;;5095386;28;20016;-73
2023/01/13 01:40:14;;;;;;;5.72;1.38;;;;;;;;;;5093623;28;20378;-73
2023/01/13 01:45:26;;;;;;;9.27;1.90;;;;;;;;;;5094979;28;20073;-72
2023/01/13 01:47:58;;;;;;;9.23;1.95;;;;;;;;;;5094053;28;20016;-73
2023/01/13 01:50:23;;;;;;;7.25;1.75;;;;;;;;;;5098754;28;20024;-76
2023/01/13 01:52:51;;;;;;;10.88;2.35;;;;;;;;;;5096258;28;20051;-71
2023/01/13 01:55:18;;;;;;;8.27;1.80;;;;;;;;;;5092956;28;20385;-73
2023/01/13 01:57:47;;;;;;;9.40;2.72;;;;;;;;;;5092679;28;20024;-71
2023/01/13 02:00:13;;;;;;;8.65;2.00;;;;;;;;;;5092707;28;20059;-72
2023/01/13 02:02:40;;;;;;;10.50;1.98;;;;;;;;;;5092630;28;20052;-71
2023/01/13 02:05:05;;;;;;;6.88;1.63;;;;;;;;;;5093724;28;20035;-73
2023/01/13 02:07:32;;;;;;;10.68;2.28;;;;;;;;;;5095494;28;20012;-72
2023/01/13 02:10:00;;;;;;;6.10;1.83;;;;;;;;;;5095119;28;20031;-71
2023/01/13 02:12:29;;;;;;;6.00;1.88;;;;;;;;;;5093292;28;20060;-74
2023/01/13 02:14:57;;;;;;;9.10;1.92;;;;;;;;;;5093080;28;20111;-71
2023/01/13 02:17:34;;;;;;;9.27;2.03;;;;;;;;;;5093413;28;20055;-71
2023/01/13 02:20:23;;;;;;;7.40;2.03;;;;;;;;;;5091693;28;20020;-72
2023/01/13 02:23:04;;;;;;;13.80;2.58;;;;;;;;;;5091931;28;20042;-71
2023/01/13 02:25:35;;;;;;;10.63;2.40;;;;;;;;;;5091980;28;20051;-71
2023/01/13 02:28:16;;;;;;;6.90;1.67;;;;;;;;;;5093438;28;20024;-71
2023/01/13 02:33:33;;;;;;;6.72;1.67;;;;;;;;;;5093136;28;20027;-70
2023/01/13 02:36:09;;;;;;;5.45;1.30;;;;;;;;;;5093219;28;20020;-71
2023/01/13 02:38:38;;;;;;;14.10;2.65;;;;;;;;;;5092767;28;20027;-71
2023/01/13 02:44:06;;;;;;;6.95;1.40;;;;;;;;;;5083894;28;20030;-71
2023/01/13 02:46:33;;;;;;;8.23;2.00;;;;;;;;;;5092953;28;20023;-70
2023/01/13 02:49:02;;;;;;;9.57;2.30;;;;;;;;;;5094227;28;20012;-70
2023/01/13 02:51:28;;;;;;;7.13;1.45;;;;;;;;;;5093880;28;20020;-72
2023/01/13 02:53:58;;;;;;;15.70;2.10;;;;;;;;;;5093618;28;20023;-72
2023/01/13 02:56:25;;;;;;;9.13;2.10;;;;;;;;;;5093213;28;20022;-72
2023/01/13 02:58:51;;;;;;;9.80;2.70;;;;;;;;;;5092593;28;20495;-71
2023/01/13 03:01:17;;;;;;;8.15;1.75;;;;;;;;;;5090715;28;20059;-70
2023/01/13 03:03:43;;;;;;;9.07;2.38;;;;;;;;;;5091314;28;20024;-70
2023/01/13 03:06:08;;;;;;;11.95;2.60;;;;;;;;;;5093841;28;20012;-72
2023/01/13 03:08:45;;;;;;;12.60;2.30;;;;;;;;;;5095438;28;20020;-70
2023/01/13 03:11:12;;;;;;;11.23;2.55;;;;;;;;;;5096452;28;20488;-71
2023/01/13 03:13:56;;;;;;;11.90;2.83;;;;;;;;;;5096308;28;20397;-70
2023/01/13 03:16:30;;;;;;;11.32;4.20;;;;;;;;;;5096407;28;20027;-70
2023/01/13 03:19:10;;;;;;;8.82;2.35;;;;;;;;;;5095119;28;20016;-70
2023/01/13 03:21:39;;;;;;;8.30;2.10;;;;;;;;;;5096525;28;20468;-73
2023/01/13 03:24:10;;;;;;;8.80;2.08;;;;;;;;;;5097752;28;20595;-70
2023/01/13 03:26:41;;;;;;;10.05;2.33;;;;;;;;;;5097638;28;20473;-70
2023/01/13 03:29:29;;;;;;;6.53;1.90;;;;;;;;;;5096920;28;20027;-70
2023/01/13 03:32:04;;;;;;;7.95;2.50;;;;;;;;;;5087465;28;20036;-74
2023/01/13 03:34:34;;;;;;;10.75;2.33;;;;;;;;;;5095733;28;20020;-69
2023/01/13 03:37:02;;;;;;;10.50;2.47;;;;;;;;;;5096365;28;20056;-70
2023/01/13 03:39:30;;;;;;;7.80;2.08;;;;;;;;;;5094288;28;20024;-70
2023/01/13 03:42:03;;;;;;;8.73;2.25;;;;;;;;;;5095928;28;20035;-71
2023/01/13 03:44:40;;;;;;;8.63;1.83;;;;;;;;;;5096034;28;20086;-71
2023/01/13 03:47:16;;;;;;;11.63;1.90;;;;;;;;;;5095763;28;20028;-70
2023/01/13 03:49:51;;;;;;;9.43;1.75;;;;;;;;;;5095570;28;20465;-70
2023/01/13 03:52:21;;;;;;;6.70;2.05;;;;;;;;;;5094255;28;20020;-69
2023/01/13 03:54:49;;;;;;;8.25;1.13;;;;;;;;;;5095575;28;20073;-71
2023/01/13 03:57:19;;;;;;;5.53;1.48;;;;;;;;;;5094525;28;20461;-70
2023/01/13 03:59:46;;;;;;;7.18;1.40;;;;;;;;;;5094145;28;20020;-69
2023/01/13 04:02:18;;;;;;;5.63;1.35;;;;;;;;;;5093957;28;20044;-69
2023/01/13 04:04:47;;;;;;;8.38;1.55;;;;;;;;;;5095259;28;20039;-69
2023/01/13 04:07:13;;;;;;;7.13;1.27;;;;;;;;;;5095073;28;20495;-68
2023/01/13 04:09:44;;;;;;;8.77;1.40;;;;;;;;;;5095287;28;20008;-69
2023/01/13 04:12:16;;;;;;;6.93;0.90;;;;;;;;;;5093835;28;20020;-69
2023/01/13 04:14:41;;;;;;;7.18;1.83;;;;;;;;;;5093799;28;20020;-69
2023/01/13 04:17:07;;;;;;;7.07;0.95;;;;;;;;;;5094814;28;20426;-70
2023/01/13 04:19:33;;;;;;;4.97;1.25;;;;;;;;;;5093982;28;20023;-71
2023/01/13 04:21:59;;;;;;;9.52;1.48;;;;;;;;;;5095050;28;20036;-70
2023/01/13 04:24:25;;;;;;;2.92;0.85;;;;;;;;;;5094822;28;20491;-72
2023/01/13 04:26:51;;;;;;;4.28;0.90;;;;;;;;;;5094707;28;20016;-70
2023/01/13 04:29:16;;;;;;;6.40;1.30;;;;;;;;;;5093474;28;20040;-69
2023/01/13 04:31:41;;;;;;;5.97;1.20;;;;;;;;;;5097751;28;20012;-71
2023/01/13 04:34:07;;;;;;;7.72;1.90;;;;;;;;;;5097022;28;20425;-73
2023/01/13 04:36:34;;;;;;;3.88;1.70;;;;;;;;;;5096170;28;20027;-69
2023/01/13 04:39:00;;;;;;;3.08;1.50;;;;;;;;;;5093604;28;20477;-68
2023/01/13 04:41:25;;;;;;;7.35;1.58;;;;;;;;;;5095229;28;20111;-68
2023/01/13 04:43:52;;;;;;;6.15;1.98;;;;;;;;;;5096136;28;20008;-69
2023/01/13 04:46:18;;;;;;;3.45;1.20;;;;;;;;;;5095711;28;20047;-68
2023/01/13 04:48:43;;;;;;;5.97;1.45;;;;;;;;;;5096174;28;20392;-71
2023/01/13 04:51:10;;;;;;;7.50;1.10;;;;;;;;;;5094047;28;20369;-69
2023/01/13 04:53:35;;;;;;;5.20;1.52;;;;;;;;;;5094319;28;20016;-68
2023/01/13 04:56:01;;;;;;;5.93;2.20;;;;;;;;;;5093091;28;20366;-68
2023/01/13 04:58:26;;;;;;;6.40;1.45;;;;;;;;;;5093219;28;20035;-67
2023/01/13 05:00:52;;;;;;;4.85;1.40;;;;;;;;;;5092288;28;21849;-68
2023/01/13 05:03:18;;;;;;;4.95;1.60;;;;;;;;;;5093985;28;20020;-67
2023/01/13 05:05:43;;;;;;;6.43;1.40;;;;;;;;;;5094202;28;20073;-67
2023/01/13 05:08:09;;;;;;;3.05;1.40;;;;;;;;;;5092633;28;20023;-70
2023/01/13 05:10:34;;;;;;;2.95;1.65;;;;;;;;;;5094574;28;20016;-67
2023/01/13 05:18:28;;;;;;;4.10;2.40;;;;;;;;;;5094266;28;20023;-66
2023/01/13 05:20:54;;;;;;;5.57;1.63;;;;;;;;;;5094770;28;20052;-70
2023/01/13 05:26:03;;;;;;;6.35;2.28;;;;;;;;;;5094431;28;20031;-70
2023/01/13 05:28:32;;;;;;;5.03;2.50;;;;;;;;;;5094504;28;20380;-73
2023/01/13 05:30:59;;;;;;;5.78;2.45;;;;;;;;;;5092299;28;20059;-68
2023/01/13 05:33:24;;;;;;;6.30;3.10;;;;;;;;;;5098348;28;20031;-71
2023/01/13 05:35:52;;;;;;;5.28;2.22;;;;;;;;;;5096284;28;20079;-70
2023/01/13 05:38:17;;;;;;;7.68;2.50;;;;;;;;;;5094597;28;20030;-70
2023/01/13 05:43:27;;;;;;;8.15;3.10;;;;;;;;;;5093532;28;20074;-67
2023/01/13 05:46:03;;;;;;;8.10;2.95;;;;;;;;;;5092203;28;20012;-67
2023/01/13 05:48:30;;;;;;;5.65;2.65;;;;;;;;;;5092343;28;20024;-68
2023/01/13 05:50:56;;;;;;;4.47;2.30;;;;;;;;;;5091883;28;20020;-69
2023/01/13 05:53:22;;;;;;;8.60;2.63;;;;;;;;;;5091790;28;20027;-69
2023/01/13 05:55:48;;;;;;;3.95;1.58;;;;;;;;;;5091566;28;20028;-68
2023/01/13 05:58:15;;;;;;;3.50;1.13;;;;;;;;;;5093079;28;20077;-69
2023/01/13 06:00:40;;;;;;;3.58;1.40;;;;;;;;;;5092497;28;20027;-68
2023/01/13 06:03:06;;;;;;;8.82;2.90;;;;;;;;;;5092547;28;20024;-70
2023/01/13 06:05:32;;;;;;;3.88;1.30;;;;;;;;;;5091427;28;20022;-68
2023/01/13 06:07:59;;;;;;;11.70;2.13;;;;;;;;;;5092688;28;20138;-68
2023/01/13 06:10:25;;;;;;;9.68;3.53;;;;;;;;;;5092835;28;20468;-68
2023/01/13 06:12:50;;;;;;;12.20;3.10;;;;;;;;;;5093065;28;20122;-68
2023/01/13 06:15:16;;;;;;;8.48;2.42;;;;;;;;;;5092037;28;20099;-67
2023/01/13 06:17:41;;;;;;;1.10;0.98;;;;;;;;;;5092412;28;20023;-72
2023/01/13 06:20:08;;;;;;;10.32;3.05;;;;;;;;;;5092452;28;20012;-71
2023/01/13 06:22:38;;;;;;;11.68;3.80;;;;;;;;;;5092484;28;20115;-69
2023/01/13 06:25:07;;;;;;;9.90;3.92;;;;;;;;;;5090766;28;20024;-69
2023/01/13 06:27:33;;;;;;;7.93;3.72;;;;;;;;;;5090751;28;20038;-70
2023/01/13 06:29:58;;;;;;;10.02;5.15;;;;;;;;;;5092270;28;20018;-69
2023/01/13 06:32:25;;;;;;;13.95;5.93;;;;;;;;;;5092678;28;20020;-73
2023/01/13 06:34:54;;;;;;;12.13;6.75;;;;;;;;;;5094433;28;20042;-71
2023/01/13 06:37:22;;;;;;;10.95;5.07;;;;;;;;;;5094599;28;20066;-69
2023/01/13 06:39:47;;;;;;;6.10;3.67;;;;;;;;;;5093320;28;20465;-69
2023/01/13 06:44:57;;;;;;;10.23;5.13;;;;;;;;;;5094953;28;20035;-70
2023/01/13 06:47:22;;;;;;;4.28;2.75;;;;;;;;;;5096462;28;20020;-70
2023/01/13 06:49:48;;;;;;;8.68;4.18;;;;;;;;;;5096682;28;20035;-69
2023/01/13 06:52:14;;;;;;;6.13;3.13;;;;;;;;;;5094398;28;20137;-67
2023/01/13 06:54:39;;;;;;;7.00;1.98;;;;;;;;;;5095805;28;20020;-70
2023/01/13 06:57:06;;;;;;;5.63;3.60;;;;;;;;;;5095433;28;20329;-70
2023/01/13 06:59:34;;;;;;;6.65;2.10;;;;;;;;;;5096359;28;20099;-70
2023/01/13 07:01:59;;;;;;;5.20;2.03;;;;;;;;;;5095122;28;20385;-69
2023/01/13 07:04:25;;;;;;;3.72;1.70;;;;;;;;;;5095987;28;20062;-69
2023/01/13 07:06:50;;;;;;;4.90;1.80;;;;;;;;;;5096194;28;20020;-70
2023/01/13 07:09:16;;;;;;;5.68;2.58;;;;;;;;;;5096406;28;20072;-70
2023/01/13 07:11:41;;;;;;;6.20;3.67;;;;;;;;;;5093761;28;20054;-71
2023/01/13 07:16:51;;;;;;;9.82;3.85;;;;;;;;;;5095101;28;20050;-69
2023/01/13 07:19:22;;;;;;;11.88;5.53;;;;;;;;;;5093782;28;20080;-70
2023/01/13 07:21:48;;;;;;;12.13;4.90;;;;;;;;;;5094909;28;20035;-74
2023/01/13 07:24:14;;;;;;;14.55;6.90;;;;;;;;;;5094270;28;20032;-70
2023/01/13 07:26:40;;;;;;;12.50;5.53;;;;;;;;;;5099420;28;20150;-71
2023/01/13 07:29:05;;;;;;;13.13;6.40;;;;;;;;;;5096571;28;20020;-72
2023/01/13 07:31:31;;;;;;;11.80;5.30;;;;;;;;;;5095124;28;20488;-71
2023/01/13 07:33:56;;;;;;;8.38;4.35;;;;;;;;;;5094571;28;20028;-72
2023/01/13 07:36:22;;;;;;;10.32;5.15;;;;;;;;;;5094773;28;20053;-71
2023/01/13 07:38:47;;;;;;;11.15;4.07;;;;;;;;;;5095133;28;20020;-70
2023/01/13 07:43:59;;;;;;;8.48;4.15;;;;;;;;;;5095583;28;20111;-70
2023/01/13 07:46:24;;;;;;;7.03;3.05;;;;;;;;;;5094833;28;20495;-70
2023/01/13 07:48:50;;;;;;;7.05;3.83;;;;;;;;;;5095553;28;20020;-71
2023/01/13 07:51:15;;;;;;;5.50;3.13;;;;;;;;;;5094285;28;20020;-70
2023/01/13 07:53:41;;;;;;;3.10;1.70;;;;;;;;;;5094564;28;20012;-73
2023/01/13 07:56:06;;;;;;;7.53;3.47;;;;;;;;;;5094707;28;20045;-76
2023/01/13 07:58:33;;;;;;;10.48;3.97;;;;;;;;;;5096047;28;20050;-75
2023/01/13 08:00:59;;;;;;;10.38;4.50;;;;;;;;;;5093487;28;20051;-74
2023/01/13 08:03:25;;;;;;;11.95;4.38;;;;;;;;;;5093333;28;20459;-73
2023/01/13 08:05:51;;;;;;;14.82;4.43;;;;;;;;;;5110780;28;20023;-74
2023/01/13 08:08:16;;;;;;;8.65;4.15;;;;;;;;;;5095006;28;20392;-73
2023/01/13 08:10:42;;;;;;;8.93;4.30;;;;;;;;;;5094006;28;20111;-72
2023/01/13 08:13:18;;;;;;;11.27;4.95;;;;;;;;;;5095261;28;20030;-72
2023/01/13 08:15:45;;;;;;;14.63;4.57;;;;;;;;;;5092860;28;20488;-72
2023/01/13 08:18:11;;;;;;;14.70;5.38;;;;;;;;;;5094339;28;20012;-72
2023/01/13 08:20:36;;;;;;;9.18;3.83;;;;;;;;;;5092874;28;20020;-74
2023/01/13 08:23:02;;;;;;;11.27;4.30;;;;;;;;;;5093874;28;20077;-74
2023/01/13 08:25:28;;;;;;;9.52;3.53;;;;;;;;;;5092495;28;20034;-72
2023/01/13 08:27:54;;;;;;;11.88;3.70;;;;;;;;;;5094065;28;20031;-72
2023/01/13 08:30:20;;;;;;;9.05;4.03;;;;;;;;;;5094185;28;20469;-72
2023/01/13 08:32:46;;;;;;;10.85;3.33;;;;;;;;;;5094420;28;20065;-73
2023/01/13 08:35:12;;;;;;;8.70;3.08;;;;;;;;;;5092882;28;20017;-73
2023/01/13 08:37:37;;;;;;;9.23;3.50;;;;;;;;;;5094414;28;20024;-73
2023/01/13 08:40:03;;;;;;;5.80;2.60;;;;;;;;;;5092859;28;20490;-74
2023/01/13 08:42:29;;;;;;;13.45;3.33;;;;;;;;;;5094051;28;20137;-74
2023/01/13 08:44:55;;;;;;;8.02;3.50;;;;;;;;;;5093850;28;20068;-74
2023/01/13 08:47:21;;;;;;;8.32;3.85;;;;;;;;;;5093259;28;20076;-75
2023/01/13 08:49:46;;;;;;;9.55;3.55;;;;;;;;;;5091893;28;20042;-75
2023/01/13 08:52:12;;;;;;;7.70;3.22;;;;;;;;;;5093324;28;20020;-72
2023/01/13 08:54:38;;;;;;;10.35;4.28;;;;;;;;;;5091775;28;20492;-74
2023/01/13 08:57:05;;;;;;;8.50;4.38;;;;;;;;;;5093039;28;20028;-71
2023/01/13 08:59:30;;;;;;;6.38;3.53;;;;;;;;;;5091595;28;20059;-73
2023/01/13 09:01:56;;;;;;;8.13;2.97;;;;;;;;;;5091531;28;20460;-73
2023/01/13 09:04:23;;;;;;;5.68;2.78;;;;;;;;;;5093313;28;20012;-72
2023/01/13 09:06:49;;;;;;;10.45;2.42;;;;;;;;;;5091015;28;20024;-72
2023/01/13 09:09:15;;;;;;;7.22;2.42;;;;;;;;;;5091439;28;20115;-69
2023/01/13 09:14:28;;;;;;;4.95;2.17;;;;;;;;;;5093129;28;20073;-69
2023/01/13 09:16:54;;;;;;;8.95;2.83;;;;;;;;;;5092723;28;20033;-71
2023/01/13 09:19:19;;;;;;;4.30;2.03;;;;;;;;;;5092153;28;20062;-70
2023/01/13 09:21:45;;;;;;;7.85;2.50;;;;;;;;;;5091118;28;20035;-68
2023/01/13 09:24:10;;;;;;;6.10;2.33;;;;;;;;;;5091263;28;20039;-68
2023/01/13 09:26:36;;;;;;;4.00;1.80;;;;;;;;;;5092897;28;20015;-66
2023/01/13 09:29:01;;;;;;;3.55;1.50;;;;;;;;;;5092562;28;20016;-66
2023/01/13 09:31:27;;;;;;;2.88;1.85;;;;;;;;;;5092857;28;20484;-67
2023/01/13 09:36:36;;;;;;;3.38;1.10;;;;;;;;;;5092611;28;20110;-65
2023/01/13 09:39:02;;;;;;;4.15;1.65;;;;;;;;;;5092694;28;20060;-65
2023/01/13 09:44:37;;;;;;;4.38;1.10;;;;;;;;;;5092297;28;20080;-65
2023/01/13 09:47:05;;;;;;;2.67;0.88;;;;;;;;;;5079658;28;20028;-65
2023/01/13 09:49:38;;;;;;;18.98;11.20;;;;;;;;;;5092283;28;20020;-67
2023/01/13 09:52:03;;;;;;;1.27;0.77;;;;;;;;;;5092369;28;20016;-67
2023/01/13 09:54:47;;;;;;;2.08;0.68;;;;;;;;;;5091894;28;20035;-65
2023/01/13 09:57:14;;;;;;;4.22;0.70;;;;;;;;;;5091834;28;20024;-67
2023/01/13 09:59:40;;;;;;;7.28;3.35;;;;;;;;;;5090216;28;20051;-66
2023/01/13 10:02:18;;;;;;;2.47;0.68;;;;;;;;;;5091790;28;20144;-64
2023/01/13 10:05:02;;;;;;;0.80;0.40;;;;;;;;;;5091032;28;20388;-67
2023/01/13 10:07:28;;;;;;;1.95;0.60;;;;;;;;;;5091934;28;20016;-66
2023/01/13 10:09:55;;;;;;;5.47;3.40;;;;;;;;;;5091889;28;20020;-66
2023/01/13 10:15:14;;;;;;;2.40;0.77;;;;;;;;;;5091319;28;20026;-66
2023/01/13 10:17:55;;;;;;;2.40;0.90;;;;;;;;;;5092523;28;20488;-65
2023/01/13 10:20:20;;;;;;;5.05;1.50;;;;;;;;;;5096090;28;20016;-65
2023/01/13 10:22:45;;;;;;;3.67;1.50;;;;;;;;;;5096515;28;20039;-65
2023/01/13 10:25:19;;;;;;;3.35;1.77;;;;;;;;;;5095112;28;20395;-66
2023/01/13 10:27:49;;;;;;;3.83;1.80;;;;;;;;;;5093524;28;20077;-65
2023/01/13 10:30:20;;;;;;;4.75;1.67;;;;;;;;;;5092948;28;20038;-64
2023/01/13 10:32:51;;;;;;;2.63;1.05;;;;;;;;;;5094513;28;20084;-66
2023/01/13 10:35:16;;;;;;;6.20;2.13;;;;;;;;;;5094147;28;20023;-65
2023/01/13 10:37:54;;;;;;;4.70;1.77;;;;;;;;;;5094523;28;20053;-66
2023/01/13 10:40:20;;;;;;;3.03;0.85;;;;;;;;;;5094647;28;20031;-64
2023/01/13 10:42:45;;;;;;;7.00;2.90;;;;;;;;;;5092665;28;20028;-66
2023/01/13 10:45:22;;;;;;;6.68;2.17;;;;;;;;;;5092952;28;20020;-66
2023/01/13 10:48:01;;;;;;;10.98;3.60;;;;;;;;;;5095614;28;20430;-65
2023/01/13 10:50:28;;;;;;;8.13;2.00;;;;;;;;;;5094231;28;20024;-65
2023/01/13 10:52:55;;;;;;;5.50;1.98;;;;;;;;;;5095187;28;20039;-65
2023/01/13 10:55:46;;;;;;;5.60;1.80;;;;;;;;;;5095602;28;20031;-66
2023/01/13 10:58:19;;;;;;;5.82;2.10;;;;;;;;;;5062754;28;20024;-65
2023/01/13 11:00:45;;;;;;;8.45;2.17;;;;;;;;;;5093632;28;20038;-67
2023/01/13 11:03:15;;;;;;;8.10;3.03;;;;;;;;;;5094991;28;20028;-66
2023/01/13 11:05:47;;;;;;;7.90;2.47;;;;;;;;;;5095208;28;20054;-67
2023/01/13 11:08:17;;;;;;;7.03;2.67;;;;;;;;;;5094542;28;20062;-68
2023/01/13 11:10:47;;;;;;;5.40;2.22;;;;;;;;;;5093225;28;20039;-67
2023/01/13 11:13:13;;;;;;;8.80;3.10;;;;;;;;;;5092895;28;20024;-67
2023/01/13 11:15:57;;;;;;;6.80;2.78;;;;;;;;;;5093092;28;20326;-65
2023/01/13 11:19:01;;;;;;;5.72;2.78;;;;;;;;;;5094439;28;20062;-67
2023/01/13 11:21:39;;;;;;;4.15;2.33;;;;;;;;;;5092896;28;20040;-68
2023/01/13 11:24:09;;;;;;;5.53;2.88;;;;;;;;;;5094759;28;20028;-65
2023/01/13 11:26:42;;;;;;;4.32;1.63;;;;;;;;;;5094243;28;20024;-67
2023/01/13 11:29:12;;;;;;;2.28;1.27;;;;;;;;;;5091433;28;20497;-67
2023/01/13 11:31:50;;;;;;;4.82;2.10;;;;;;;;;;5092921;28;20057;-65
2023/01/13 11:34:24;;;;;;;4.43;1.65;;;;;;;;;;5092962;28;20020;-68
2023/01/13 11:36:51;;;;;;;2.88;1.40;;;;;;;;;;5094531;28;20016;-67
2023/01/13 11:39:19;;;;;;;3.28;1.40;;;;;;;;;;5094717;28;20028;-67
2023/01/13 11:42:19;;;;;;;4.72;1.33;;;;;;;;;;5092755;28;20122;-66
2023/01/13 11:44:45;;;;;;;2.33;1.05;;;;;;;;;;5094008;28;20081;-67
2023/01/13 11:47:11;;;;;;;5.15;1.23;;;;;;;;;;5094299;28;20422;-67
2023/01/13 11:49:37;;;;;;;3.03;1.10;;;;;;;;;;5094240;28;20095;-68
2023/01/13 11:52:12;;;;;;;3.38;0.77;;;;;;;;;;5093941;28;20039;-65
2023/01/13 11:54:56;;;;;;;4.32;1.05;;;;;;;;;;5092421;28;20023;-67
2023/01/13 11:57:40;;;;;;;2.72;0.98;;;;;;;;;;5093636;28;20028;-66
2023/01/13 12:00:08;;;;;;;2.10;1.17;;;;;;;;;;5092774;28;20031;-66
2023/01/13 12:02:49;;;;;;;2.53;0.95;;;;;;;;;;5092006;28;20067;-66
2023/01/13 12:05:36;;;;;;;2.92;0.73;;;;;;;;;;5092381;28;20039;-67
2023/01/13 12:08:25;;;;;;;3.60;1.05;;;;;;;;;;5093990;28;20024;-65
2023/01/13 12:10:56;;;;;;;5.82;0.98;;;;;;;;;;5093962;28;20024;-65
2023/01/13 12:13:34;;;;;;;4.00;1.42;;;;;;;;;;5093832;28;20027;-65
2023/01/13 12:16:18;;;;;;;2.50;0.70;;;;;;;;;;5092001;28;20044;-66
2023/01/13 12:19:13;;;;;;;2.13;1.00;;;;;;;;;;5093662;28;20028;-67
2023/01/13 12:21:45;;;;;;;1.90;1.10;;;;;;;;;;5074487;28;20089;-67
2023/01/13 12:24:12;;;;;;;6.55;0.90;;;;;;;;;;5093474;28;20016;-67
2023/01/13 12:26:43;;;;;;;2.13;1.08;;;;;;;;;;5093434;28;20024;-70
2023/01/13 12:29:14;;;;;;;4.43;1.02;;;;;;;;;;5092881;28;20020;-67
2023/01/13 12:31:40;;;;;;;5.65;1.83;;;;;;;;;;5093316;28;20027;-69
2023/01/13 12:34:14;;;;;;;4.82;1.40;;;;;;;;;;5108992;28;20069;-68
2023/01/13 12:36:49;;;;;;;3.33;1.10;;;;;;;;;;5092954;28;20062;-68
2023/01/13 12:39:27;;;;;;;6.43;0.93;;;;;;;;;;5093289;28;20032;-68
2023/01/13 12:45:06;;;;;;;3.90;0.90;;;;;;;;;;5093144;28;20073;-67
2023/01/13 12:47:32;;;;;;;4.07;0.93;;;;;;;;;;5093106;28;20046;-67
2023/01/13 12:50:30;;;;;;;3.80;0.70;;;;;;;;;;5093455;28;20017;-68
2023/01/13 12:52:57;;;;;;;12.45;4.97;;;;;;;;;;5047610;28;20385;-69
2023/01/13 12:55:31;;;;;;;5.90;1.27;;;;;;;;;;5093112;28;20015;-68
2023/01/13 12:58:05;;;;;;;5.90;1.02;;;;;;;;;;5091837;28;20023;-68
2023/01/13 13:00:31;;;;;;;3.78;0.95;;;;;;;;;;5093281;28;20020;-67
2023/01/13 13:03:17;;;;;;;8.05;1.10;;;;;;;;;;5091063;28;20052;-69
2023/01/13 13:05:48;;;;;;;3.75;0.75;;;;;;;;;;5092642;28;20031;-69
2023/01/13 13:08:17;;;;;;;5.65;1.15;;;;;;;;;;5093396;28;20073;-68
2023/01/13 13:10:46;;;;;;;12.88;1.83;;;;;;;;;;5093443;28;20380;-69
2023/01/13 13:13:30;;;;;;;9.13;1.25;;;;;;;;;;5093332;28;20024;-68
2023/01/13 13:16:17;;;;;;;8.98;3.67;;;;;;;;;;5091702;28;20020;-69
2023/01/13 13:18:42;;;;;;;10.73;1.40;;;;;;;;;;5092821;28;20020;-67
2023/01/13 13:21:08;;;;;;;3.97;1.08;;;;;;;;;;5091368;28;20020;-70
2023/01/13 13:23:52;;;;;;;5.25;1.33;;;;;;;;;;5092582;28;20036;-69
2023/01/13 13:26:20;;;;;;;9.00;1.75;;;;;;;;;;5092779;28;20023;-69
2023/01/13 13:28:51;;;;;;;6.95;1.10;;;;;;;;;;5091383;28;20412;-69
2023/01/13 13:31:40;;;;;;;7.07;1.13;;;;;;;;;;5092937;28;20024;-67
2023/01/13 13:34:21;;;;;;;4.80;1.40;;;;;;;;;;5091271;28;20461;-69
2023/01/13 13:36:57;;;;;;;8.48;0.98;;;;;;;;;;5092637;28;20027;-67
2023/01/13 13:47:47;;;;;;;5.22;1.48;;;;;;;;;;5092780;28;20108;-68
2023/01/13 13:50:20;;;;;;;7.95;1.52;;;;;;;;;;5092413;28;20028;-69
2023/01/13 13:52:53;;;;;;;10.55;1.40;;;;;;;;;;5092253;28;20023;-68
2023/01/13 13:55:24;;;;;;;4.70;1.20;;;;;;;;;;5090281;28;20471;-71
2023/01/13 13:57:51;;;;;;;6.25;1.35;;;;;;;;;;5092017;28;20024;-70
2023/01/13 14:00:34;;;;;;;16.27;2.45;;;;;;;;;;5091555;28;20028;-69
2023/01/13 14:03:05;;;;;;;7.15;1.63;;;;;;;;;;5091466;28;20131;-68
2023/01/13 14:05:33;;;;;;;16.70;5.90;;;;;;;;;;5090026;28;20054;-70
2023/01/13 14:08:00;;;;;;;6.95;1.77;;;;;;;;;;5090776;28;20016;-71
2023/01/13 14:10:30;;;;;;;11.50;1.77;;;;;;;;;;5093225;28;20024;-69
2023/01/13 14:12:58;;;;;;;9.02;1.80;;;;;;;;;;5090558;28;20029;-74
2023/01/13 14:15:30;;;;;;;12.63;2.13;;;;;;;;;;5092301;28;20039;-70
2023/01/13 14:17:56;;;;;;;13.60;1.70;;;;;;;;;;5090690;28;20048;-70
2023/01/13 14:20:21;;;;;;;9.02;1.77;;;;;;;;;;5092058;28;20055;-70
2023/01/13 14:22:51;;;;;;;14.90;3.28;;;;;;;;;;5091015;28;20036;-71
2023/01/13 14:25:30;;;;;;;8.05;3.13;;;;;;;;;;5091216;28;20020;-75
2023/01/13 14:27:56;;;;;;;5.93;1.50;;;;;;;;;;5092589;28;20032;-70
2023/01/13 14:30:23;;;;;;;5.80;1.50;;;;;;;;;;5094239;28;20056;-70
2023/01/13 14:32:49;;;;;;;12.65;2.28;;;;;;;;;;5093289;28;20114;-71
2023/01/13 14:35:15;;;;;;;8.38;2.72;;;;;;;;;;5091618;28;20097;-70
2023/01/13 14:37:42;;;;;;;5.65;1.48;;;;;;;;;;5091638;28;20092;-71
2023/01/13 14:40:26;;;;;;;6.90;1.70;;;;;;;;;;5092629;28;20533;-69
2023/01/13 14:43:01;;;;;;;8.32;2.42;;;;;;;;;;5092009;28;20028;-69
2023/01/13 14:45:26;;;;;;;7.32;1.83;;;;;;;;;;5092033;28;20107;-69
2023/01/13 14:47:52;;;;;;;15.98;1.58;;;;;;;;;;5090230;28;20048;-71
2023/01/13 14:50:19;;;;;;;13.45;2.20;;;;;;;;;;5091066;28;20489;-70
2023/01/13 14:52:56;;;;;;;7.22;1.73;;;;;;;;;;5090507;28;20384;-70
2023/01/13 14:55:30;;;;;;;9.35;1.60;;;;;;;;;;5091960;28;20012;-71
2023/01/13 14:58:14;;;;;;;10.35;1.92;;;;;;;;;;5091843;28;20384;-68
2023/01/13 15:00:40;;;;;;;14.13;1.27;;;;;;;;;;5091557;28;20032;-71
2023/01/13 15:03:06;;;;;;;9.02;1.50;;;;;;;;;;5090990;28;20039;-72
2023/01/13 15:05:36;;;;;;;10.52;2.45;;;;;;;;;;5093859;28;20016;-71
2023/01/13 15:08:04;;;;;;;15.13;1.92;;;;;;;;;;5093924;28;20381;-72
2023/01/13 15:10:58;;;;;;;16.40;1.95;;;;;;;;;;5093464;28;20027;-70
2023/01/13 15:13:26;;;;;;;11.95;2.65;;;;;;;;;;5093118;28;20429;-71
2023/01/13 15:15:53;;;;;;;9.77;2.15;;;;;;;;;;5093896;28;20115;-72
2023/01/13 15:18:18;;;;;;;15.35;2.40;;;;;;;;;;5093934;28;20023;-71
2023/01/13 15:20:44;;;;;;;16.77;2.15;;;;;;;;;;5094481;28;20472;-71
2023/01/13 15:23:10;;;;;;;16.27;2.67;;;;;;;;;;5094880;28;20027;-70
2023/01/13 15:25:41;;;;;;;18.25;2.40;;;;;;;;;;5093519;28;20020;-70
2023/01/13 15:28:13;;;;;;;17.60;2.03;;;;;;;;;;5094575;28;20024;-71
2023/01/13 15:30:38;;;;;;;20.33;2.78;;;;;;;;;;5095310;28;20076;-71
2023/01/13 15:33:04;;;;;;;14.38;2.58;;;;;;;;;;5094470;28;20023;-70
2023/01/13 15:35:29;;;;;;;19.20;3.88;;;;;;;;;;5095500;28;20070;-70
2023/01/13 15:37:56;;;;;;;23.23;2.97;;;;;;;;;;5094732;28;20020;-71
2023/01/13 15:40:23;;;;;;;20.65;2.97;;;;;;;;;;5094838;28;20069;-71
2023/01/13 15:48:19;;;;;;;20.05;2.03;;;;;;;;;;5094339;28;20042;-71
2023/01/13 15:50:45;;;;;;;19.83;2.42;;;;;;;;;;5094092;28;20020;-72